sensor_id;sensor_type;location;lat;lon;timestamp;pressure;altitude;pressure_sealevel;temperature;humidity
28181;BME280;15464;50.988;10.318;2023-11-21T00:02:18;98295.81;;;7.14;100.00
28181;BME280;15464;50.988;10.318;2023-11-21T00:04:45;98287.31;;;7.10;100.00
28181;BME280;15464;50.988;10.318;2023-11-21T00:07:12;98299.66;;;7.10;100.00
28181;BME280;15464;50.988;10.318;2023-11-21T00:09:38;98302.19;;;7.11;100.00
28181;BME280;15464;50.988;10.318;2023-11-21T00:12:05;98305.66;;;7.12;100.00
28181;BME280;15464;50.988;10.318;2023-11-21T00:14:32;98299.41;;;7.13;100.00
28181;BME280;15464;50.988;10.318;2023-11-21T00:16:59;98308.75;;;7.17;100.00
28181;BME280;15464;50.988;10.318;2023-11-21T00:19:26;98291.25;;;7.16;100.00
28181;BME280;15464;50.988;10.318;2023-11-21T00:21:53;98292.78;;;7.18;100.00
28181;BME280;15464;50.988;10.318;2023-11-21T00:24:19;98298.22;;;7.17;100.00
28181;BME280;15464;50.988;10.318;2023-11-21T00:26:46;98294.97;;;7.13;100.00
28181;BME280;15464;50.988;10.318;2023-11-21T00:29:15;98297.75;;;7.12;100.00
28181;BME280;15464;50.988;10.318;2023-11-21T00:31:44;98302.53;;;7.07;100.00
28181;BME280;15464;50.988;10.318;2023-11-21T00:34:12;98310.84;;;7.02;100.00
28181;BME280;15464;50.988;10.318;2023-11-21T00:36:39;98308.47;;;6.99;100.00
28181;BME280;15464;50.988;10.318;2023-11-21T00:39:06;98311.09;;;6.99;100.00
28181;BME280;15464;50.988;10.318;2023-11-21T00:41:34;98308.91;;;7.04;100.00
28181;BME280;15464;50.988;10.318;2023-11-21T00:44:00;98310.84;;;7.02;100.00
28181;BME280;15464;50.988;10.318;2023-11-21T00:46:27;98319.69;;;7.01;100.00
28181;BME280;15464;50.988;10.318;2023-11-21T00:48:55;98323.78;;;6.94;100.00
28181;BME280;15464;50.988;10.318;2023-11-21T00:51:22;98325.38;;;6.85;100.00
28181;BME280;15464;50.988;10.318;2023-11-21T00:53:49;98326.22;;;6.86;100.00
28181;BME280;15464;50.988;10.318;2023-11-21T00:56:16;98330.03;;;6.82;100.00
28181;BME280;15464;50.988;10.318;2023-11-21T00:58:42;98335.31;;;6.82;100.00
28181;BME280;15464;50.988;10.318;2023-11-21T01:01:13;98335.31;;;6.82;100.00
28181;BME280;15464;50.988;10.318;2023-11-21T01:03:39;98336.03;;;6.84;100.00
28181;BME280;15464;50.988;10.318;2023-11-21T01:06:07;98333.19;;;6.87;100.00
28181;BME280;15464;50.988;10.318;2023-11-21T01:08:33;98332.91;;;6.90;100.00
28181;BME280;15464;50.988;10.318;2023-11-21T01:11:00;98329.56;;;6.88;100.00
28181;BME280;15464;50.988;10.318;2023-11-21T01:13:27;98333.19;;;6.87;100.00
28181;BME280;15464;50.988;10.318;2023-11-21T01:15:55;98343.94;;;6.84;100.00
28181;BME280;15464;50.988;10.318;2023-11-21T01:18:22;98347.53;;;6.83;100.00
28181;BME280;15464;50.988;10.318;2023-11-21T01:20:48;98340.72;;;6.80;100.00
28181;BME280;15464;50.988;10.318;2023-11-21T01:23:15;98344.19;;;6.81;100.00
28181;BME280;15464;50.988;10.318;2023-11-21T01:25:42;98354.50;;;6.84;100.00
28181;BME280;15464;50.988;10.318;2023-11-21T01:28:09;98355.44;;;6.83;100.00
28181;BME280;15464;50.988;10.318;2023-11-21T01:30:35;98357.13;;;6.84;100.00
28181;BME280;15464;50.988;10.318;2023-11-21T01:33:02;98358.56;;;6.88;100.00
28181;BME280;15464;50.988;10.318;2023-11-21T01:35:29;98351.25;;;6.92;100.00
28181;BME280;15464;50.988;10.318;2023-11-21T01:37:56;98357.38;;;6.92;100.00
28181;BME280;15464;50.988;10.318;2023-11-21T01:40:23;98356.25;;;6.95;100.00
28181;BME280;15464;50.988;10.318;2023-11-21T01:42:53;98358.78;;;6.96;100.00
28181;BME280;15464;50.988;10.318;2023-11-21T01:45:20;98357.84;;;6.97;100.00
28181;BME280;15464;50.988;10.318;2023-11-21T01:47:46;98361.19;;;6.99;100.00
28181;BME280;15464;50.988;10.318;2023-11-21T01:50:15;98356.63;;;7.01;100.00
28181;BME280;15464;50.988;10.318;2023-11-21T01:52:45;98361.88;;;7.01;100.00
28181;BME280;15464;50.988;10.318;2023-11-21T01:55:14;98360.22;;;7.00;100.00
28181;BME280;15464;50.988;10.318;2023-11-21T01:57:55;98363.84;;;6.99;100.00
28181;BME280;15464;50.988;10.318;2023-11-21T02:00:22;98362.38;;;6.95;100.00
28181;BME280;15464;50.988;10.318;2023-11-21T02:02:50;98364.91;;;6.97;100.00
28181;BME280;15464;50.988;10.318;2023-11-21T02:05:18;98369.09;;;6.99;100.00
28181;BME280;15464;50.988;10.318;2023-11-21T02:07:46;98363.84;;;6.99;100.00
28181;BME280;15464;50.988;10.318;2023-11-21T02:10:15;98371.97;;;6.96;100.00
28181;BME280;15464;50.988;10.318;2023-11-21T02:12:42;98376.50;;;6.94;100.00
28181;BME280;15464;50.988;10.318;2023-11-21T02:15:13;98370.28;;;6.95;100.00
28181;BME280;15464;50.988;10.318;2023-11-21T02:17:47;98372.69;;;6.98;100.00
28181;BME280;15464;50.988;10.318;2023-11-21T02:20:22;98373.38;;;7.00;100.00
28181;BME280;15464;50.988;10.318;2023-11-21T02:22:53;98371.47;;;7.02;100.00
28181;BME280;15464;50.988;10.318;2023-11-21T02:25:25;98373.16;;;7.03;100.00
28181;BME280;15464;50.988;10.318;2023-11-21T02:27:55;98377.47;;;7.04;100.00
28181;BME280;15464;50.988;10.318;2023-11-21T02:30:22;98371.38;;;7.04;100.00
28181;BME280;15464;50.988;10.318;2023-11-21T02:32:49;98368.84;;;7.02;100.00
28181;BME280;15464;50.988;10.318;2023-11-21T02:35:16;98374.13;;;7.02;100.00
28181;BME280;15464;50.988;10.318;2023-11-21T02:37:42;98366.09;;;7.04;100.00
28181;BME280;15464;50.988;10.318;2023-11-21T02:40:10;98370.75;;;7.00;100.00
28181;BME280;15464;50.988;10.318;2023-11-21T02:42:39;98372.47;;;6.90;100.00
28181;BME280;15464;50.988;10.318;2023-11-21T02:45:07;98372.84;;;6.85;100.00
28181;BME280;15464;50.988;10.318;2023-11-21T02:47:34;98371.25;;;6.83;100.00
28181;BME280;15464;50.988;10.318;2023-11-21T02:50:01;98377.75;;;6.79;100.00
28181;BME280;15464;50.988;10.318;2023-11-21T02:52:28;98379.16;;;6.83;100.00
28181;BME280;15464;50.988;10.318;2023-11-21T02:54:55;98382.53;;;6.85;100.00
28181;BME280;15464;50.988;10.318;2023-11-21T02:57:22;98374.38;;;6.77;100.00
28181;BME280;15464;50.988;10.318;2023-11-21T02:59:49;98370.91;;;6.76;100.00
28181;BME280;15464;50.988;10.318;2023-11-21T03:02:16;98372.97;;;6.73;100.00
28181;BME280;15464;50.988;10.318;2023-11-21T03:04:43;98371.50;;;6.69;100.00
28181;BME280;15464;50.988;10.318;2023-11-21T03:07:10;98373.44;;;6.67;100.00
28181;BME280;15464;50.988;10.318;2023-11-21T03:09:37;98370.09;;;6.65;100.00
28181;BME280;15464;50.988;10.318;2023-11-21T03:12:04;98369.50;;;6.61;100.00
28181;BME280;15464;50.988;10.318;2023-11-21T03:14:31;98368.66;;;6.61;100.00
28181;BME280;15464;50.988;10.318;2023-11-21T03:16:58;98378.56;;;6.57;100.00
28181;BME280;15464;50.988;10.318;2023-11-21T03:19:24;98375.25;;;6.55;100.00
28181;BME280;15464;50.988;10.318;2023-11-21T03:21:51;98378.84;;;6.54;100.00
28181;BME280;15464;50.988;10.318;2023-11-21T03:24:19;98383.50;;;6.51;100.00
28181;BME280;15464;50.988;10.318;2023-11-21T03:26:46;98378.47;;;6.47;100.00
28181;BME280;15464;50.988;10.318;2023-11-21T03:29:13;98385.06;;;6.42;100.00
28181;BME280;15464;50.988;10.318;2023-11-21T03:31:40;98389.97;;;6.35;100.00
28181;BME280;15464;50.988;10.318;2023-11-21T03:34:11;98392.34;;;6.27;100.00
28181;BME280;15464;50.988;10.318;2023-11-21T03:36:38;98392.59;;;6.24;100.00
28181;BME280;15464;50.988;10.318;2023-11-21T03:39:04;98396.28;;;6.22;100.00
28181;BME280;15464;50.988;10.318;2023-11-21T03:41:31;98399.97;;;6.19;100.00
28181;BME280;15464;50.988;10.318;2023-11-21T03:43:58;98399.13;;;6.19;100.00
28181;BME280;15464;50.988;10.318;2023-11-21T03:46:25;98402.13;;;6.14;100.00
28181;BME280;15464;50.988;10.318;2023-11-21T03:48:52;98401.28;;;6.14;100.00
28181;BME280;15464;50.988;10.318;2023-11-21T03:51:19;98411.81;;;6.14;100.00
28181;BME280;15464;50.988;10.318;2023-11-21T03:53:45;98414.59;;;6.12;100.00
28181;BME280;15464;50.988;10.318;2023-11-21T03:56:13;98414.81;;;6.09;100.00
28181;BME280;15464;50.988;10.318;2023-11-21T03:58:40;98421.25;;;6.05;100.00
28181;BME280;15464;50.988;10.318;2023-11-21T04:01:07;98426.63;;;6.03;100.00
28181;BME280;15464;50.988;10.318;2023-11-21T04:03:33;98422.22;;;6.04;100.00
28181;BME280;15464;50.988;10.318;2023-11-21T04:06:00;98424.13;;;6.02;100.00
28181;BME280;15464;50.988;10.318;2023-11-21T04:08:27;98433.09;;;5.99;100.00
28181;BME280;15464;50.988;10.318;2023-11-21T04:10:54;98442.06;;;5.97;100.00
28181;BME280;15464;50.988;10.318;2023-11-21T04:13:21;98446.59;;;5.95;100.00
28181;BME280;15464;50.988;10.318;2023-11-21T04:15:48;98447.78;;;5.91;100.00
28181;BME280;15464;50.988;10.318;2023-11-21T04:18:14;98442.72;;;5.88;100.00
28181;BME280;15464;50.988;10.318;2023-11-21T04:20:41;98448.94;;;5.87;100.00
28181;BME280;15464;50.988;10.318;2023-11-21T04:23:08;98448.19;;;5.85;100.00
28181;BME280;15464;50.988;10.318;2023-11-21T04:25:36;98448.19;;;5.85;100.00
28181;BME280;15464;50.988;10.318;2023-11-21T04:28:03;98448.19;;;5.85;100.00
28181;BME280;15464;50.988;10.318;2023-11-21T04:30:30;98449.03;;;5.85;100.00
28181;BME280;15464;50.988;10.318;2023-11-21T04:32:57;98444.63;;;5.86;100.00
28181;BME280;15464;50.988;10.318;2023-11-21T04:35:24;98445.34;;;5.88;100.00
28181;BME280;15464;50.988;10.318;2023-11-21T04:37:50;98445.25;;;5.89;100.00
28181;BME280;15464;50.988;10.318;2023-11-21T04:40:17;98445.13;;;5.91;100.00
28181;BME280;15464;50.988;10.318;2023-11-21T04:42:44;98453.78;;;5.93;100.00
28181;BME280;15464;50.988;10.318;2023-11-21T04:45:10;98448.25;;;5.96;100.00
28181;BME280;15464;50.988;10.318;2023-11-21T04:47:39;98449.69;;;6.00;100.00
28181;BME280;15464;50.988;10.318;2023-11-21T04:50:06;98457.84;;;5.97;100.00
28181;BME280;15464;50.988;10.318;2023-11-21T04:52:33;98451.84;;;5.95;100.00
28181;BME280;15464;50.988;10.318;2023-11-21T04:55:00;98450.28;;;5.92;100.00
28181;BME280;15464;50.988;10.318;2023-11-21T04:57:29;98456.41;;;5.93;100.00
28181;BME280;15464;50.988;10.318;2023-11-21T04:59:56;98456.41;;;5.93;100.00
28181;BME280;15464;50.988;10.318;2023-11-21T05:02:23;98449.22;;;5.95;100.00
28181;BME280;15464;50.988;10.318;2023-11-21T05:05:01;98463.31;;;5.94;100.00
28181;BME280;15464;50.988;10.318;2023-11-21T05:07:29;98463.94;;;5.97;100.00
28181;BME280;15464;50.988;10.318;2023-11-21T05:09:58;98457.84;;;5.97;100.00
28181;BME280;15464;50.988;10.318;2023-11-21T05:12:25;98463.84;;;5.99;100.00
28181;BME280;15464;50.988;10.318;2023-11-21T05:14:51;98468.13;;;6.00;100.00
28181;BME280;15464;50.988;10.318;2023-11-21T05:17:18;98465.50;;;6.00;100.00
28181;BME280;15464;50.988;10.318;2023-11-21T05:19:45;98477.00;;;5.99;100.00
28181;BME280;15464;50.988;10.318;2023-11-21T05:22:15;98476.28;;;5.97;100.00
28181;BME280;15464;50.988;10.318;2023-11-21T05:24:42;98468.47;;;5.95;100.00
28181;BME280;15464;50.988;10.318;2023-11-21T05:27:08;98485.84;;;5.98;100.00
28181;BME280;15464;50.988;10.318;2023-11-21T05:29:36;98480.59;;;5.98;100.00
28181;BME280;15464;50.988;10.318;2023-11-21T05:32:04;98484.91;;;5.99;100.00
28181;BME280;15464;50.988;10.318;2023-11-21T05:34:31;98485.00;;;5.97;100.00
28181;BME280;15464;50.988;10.318;2023-11-21T05:36:57;98502.59;;;5.97;100.00
28181;BME280;15464;50.988;10.318;2023-11-21T05:39:25;98491.97;;;5.98;100.00
28181;BME280;15464;50.988;10.318;2023-11-21T05:41:52;98491.97;;;5.98;100.00
28181;BME280;15464;50.988;10.318;2023-11-21T05:44:18;98493.25;;;5.93;100.00
28181;BME280;15464;50.988;10.318;2023-11-21T05:46:45;98502.31;;;5.89;100.00
28181;BME280;15464;50.988;10.318;2023-11-21T05:49:12;98504.94;;;5.89;100.00
28181;BME280;15464;50.988;10.318;2023-11-21T05:51:38;98507.03;;;5.84;100.00
28181;BME280;15464;50.988;10.318;2023-11-21T05:54:05;98511.06;;;5.77;100.00
28181;BME280;15464;50.988;10.318;2023-11-21T05:56:32;98517.41;;;5.74;100.00
28181;BME280;15464;50.988;10.318;2023-11-21T05:58:59;98518.34;;;5.73;100.00
28181;BME280;15464;50.988;10.318;2023-11-21T06:01:26;98521.44;;;5.67;100.00
28181;BME280;15464;50.988;10.318;2023-11-21T06:03:55;98532.91;;;5.66;100.00
28181;BME280;15464;50.988;10.318;2023-11-21T06:06:22;98531.22;;;5.65;100.00
28181;BME280;15464;50.988;10.318;2023-11-21T06:08:51;98535.53;;;5.66;100.00
28181;BME280;15464;50.988;10.318;2023-11-21T06:11:18;98533.94;;;5.63;100.00
28181;BME280;15464;50.988;10.318;2023-11-21T06:13:45;98533.25;;;5.61;100.00
28181;BME280;15464;50.988;10.318;2023-11-21T06:16:11;98531.44;;;5.62;100.00
28181;BME280;15464;50.988;10.318;2023-11-21T06:18:43;98537.75;;;5.59;100.00
28181;BME280;15464;50.988;10.318;2023-11-21T06:21:10;98539.16;;;5.52;100.00
28181;BME280;15464;50.988;10.318;2023-11-21T06:23:37;98549.16;;;5.47;100.00
28181;BME280;15464;50.988;10.318;2023-11-21T06:26:04;98554.63;;;5.44;100.00
28181;BME280;15464;50.988;10.318;2023-11-21T06:28:32;98552.97;;;5.43;100.00
28181;BME280;15464;50.988;10.318;2023-11-21T06:30:58;98558.00;;;5.46;100.00
28181;BME280;15464;50.988;10.318;2023-11-21T06:33:31;98553.34;;;5.50;100.00
28181;BME280;15464;50.988;10.318;2023-11-21T06:35:58;98556.72;;;5.52;100.00
28181;BME280;15464;50.988;10.318;2023-11-21T06:38:25;98565.44;;;5.52;100.00
28181;BME280;15464;50.988;10.318;2023-11-21T06:40:56;98563.75;;;5.51;100.00
28181;BME280;15464;50.988;10.318;2023-11-21T06:43:24;98568.31;;;5.49;100.00
28181;BME280;15464;50.988;10.318;2023-11-21T06:45:51;98571.25;;;5.45;100.00
28181;BME280;15464;50.988;10.318;2023-11-21T06:48:18;98580.94;;;5.32;100.00
28181;BME280;15464;50.988;10.318;2023-11-21T06:50:45;98582.00;;;5.29;100.00
28181;BME280;15464;50.988;10.318;2023-11-21T06:53:13;98589.06;;;5.16;100.00
28181;BME280;15464;50.988;10.318;2023-11-21T06:55:40;98584.97;;;5.12;100.00
28181;BME280;15464;50.988;10.318;2023-11-21T06:58:06;98585.78;;;5.12;100.00
28181;BME280;15464;50.988;10.318;2023-11-21T07:00:33;98592.97;;;5.10;100.00
28181;BME280;15464;50.988;10.318;2023-11-21T07:03:00;98593.28;;;5.06;100.00
28181;BME280;15464;50.988;10.318;2023-11-21T07:05:27;98596.72;;;4.94;100.00
28181;BME280;15464;50.988;10.318;2023-11-21T07:07:54;98590.94;;;4.88;100.00
28181;BME280;15464;50.988;10.318;2023-11-21T07:10:20;98597.97;;;4.88;100.00
28181;BME280;15464;50.988;10.318;2023-11-21T07:12:47;98605.34;;;4.83;100.00
28181;BME280;15464;50.988;10.318;2023-11-21T07:15:14;98604.31;;;4.85;100.00
28181;BME280;15464;50.988;10.318;2023-11-21T07:17:41;98604.31;;;4.85;100.00
28181;BME280;15464;50.988;10.318;2023-11-21T07:20:08;98612.91;;;4.87;100.00
28181;BME280;15464;50.988;10.318;2023-11-21T07:22:35;98611.25;;;4.86;100.00
28181;BME280;15464;50.988;10.318;2023-11-21T07:25:02;98613.75;;;4.88;100.00
28181;BME280;15464;50.988;10.318;2023-11-21T07:27:28;98618.81;;;4.91;100.00
28181;BME280;15464;50.988;10.318;2023-11-21T07:29:55;98621.53;;;4.90;100.00
28181;BME280;15464;50.988;10.318;2023-11-21T07:32:22;98621.75;;;4.86;100.00
28181;BME280;15464;50.988;10.318;2023-11-21T07:34:49;98631.19;;;4.89;100.00
28181;BME280;15464;50.988;10.318;2023-11-21T07:37:15;98636.38;;;4.91;100.00
28181;BME280;15464;50.988;10.318;2023-11-21T07:39:42;98640.88;;;4.88;100.00
28181;BME280;15464;50.988;10.318;2023-11-21T07:42:09;98637.31;;;4.90;100.00
28181;BME280;15464;50.988;10.318;2023-11-21T07:44:37;98641.53;;;4.92;100.00
28181;BME280;15464;50.988;10.318;2023-11-21T07:47:04;98644.78;;;4.96;100.00
28181;BME280;15464;50.988;10.318;2023-11-21T07:49:31;98640.25;;;4.98;100.00
28181;BME280;15464;50.988;10.318;2023-11-21T07:51:58;98648.69;;;5.03;100.00
28181;BME280;15464;50.988;10.318;2023-11-21T07:54:24;98648.06;;;4.99;100.00
28181;BME280;15464;50.988;10.318;2023-11-21T07:56:51;98651.22;;;5.04;100.00
28181;BME280;15464;50.988;10.318;2023-11-21T07:59:18;98656.03;;;4.98;100.00
28181;BME280;15464;50.988;10.318;2023-11-21T08:01:45;98661.28;;;4.98;100.00
28181;BME280;15464;50.988;10.318;2023-11-21T08:04:12;98658.56;;;4.99;100.00
28181;BME280;15464;50.988;10.318;2023-11-21T08:06:39;98670.88;;;4.99;100.00
28181;BME280;15464;50.988;10.318;2023-11-21T08:09:08;98665.03;;;4.94;100.00
28181;BME280;15464;50.988;10.318;2023-11-21T08:11:35;98672.84;;;4.95;100.00
28181;BME280;15464;50.988;10.318;2023-11-21T08:14:01;98678.94;;;4.96;100.00
28181;BME280;15464;50.988;10.318;2023-11-21T08:16:28;98675.56;;;4.94;100.00
28181;BME280;15464;50.988;10.318;2023-11-21T08:18:55;98675.78;;;4.91;100.00
28181;BME280;15464;50.988;10.318;2023-11-21T08:21:22;98674.53;;;4.96;100.00
28181;BME280;15464;50.988;10.318;2023-11-21T08:23:51;98679.59;;;4.99;100.00
28181;BME280;15464;50.988;10.318;2023-11-21T08:26:21;98678.50;;;4.89;100.00
28181;BME280;15464;50.988;10.318;2023-11-21T08:28:47;98682.28;;;4.85;100.00
28181;BME280;15464;50.988;10.318;2023-11-21T08:31:14;98684.94;;;4.98;100.00
28181;BME280;15464;50.988;10.318;2023-11-21T08:33:42;98680.22;;;5.03;100.00
28181;BME280;15464;50.988;10.318;2023-11-21T08:36:09;98691.06;;;5.11;100.00
28181;BME280;15464;50.988;10.318;2023-11-21T08:38:38;98689.06;;;5.14;100.00
28181;BME280;15464;50.988;10.318;2023-11-21T08:41:05;98695.56;;;5.09;100.00
28181;BME280;15464;50.988;10.318;2023-11-21T08:43:35;98694.22;;;5.16;100.00
28181;BME280;15464;50.988;10.318;2023-11-21T08:46:06;98690.34;;;5.21;100.00
28181;BME280;15464;50.988;10.318;2023-11-21T08:48:36;98692.63;;;5.26;100.00
28181;BME280;15464;50.988;10.318;2023-11-21T08:51:03;98699.16;;;5.33;100.00
28181;BME280;15464;50.988;10.318;2023-11-21T08:53:31;98695.78;;;5.31;100.00
28181;BME280;15464;50.988;10.318;2023-11-21T08:55:57;98702.13;;;5.41;100.00
28181;BME280;15464;50.988;10.318;2023-11-21T08:58:25;98701.72;;;5.47;100.00
28181;BME280;15464;50.988;10.318;2023-11-21T09:00:51;98708.00;;;5.57;100.00
28181;BME280;15464;50.988;10.318;2023-11-21T09:03:18;98713.69;;;5.64;100.00
28181;BME280;15464;50.988;10.318;2023-11-21T09:05:45;98726.13;;;5.75;100.00
28181;BME280;15464;50.988;10.318;2023-11-21T09:08:12;98726.31;;;5.84;100.00
28181;BME280;15464;50.988;10.318;2023-11-21T09:10:38;98724.13;;;5.91;100.00
28181;BME280;15464;50.988;10.318;2023-11-21T09:13:06;98719.69;;;6.04;100.00
28181;BME280;15464;50.988;10.318;2023-11-21T09:15:35;98712.81;;;6.14;100.00
28181;BME280;15464;50.988;10.318;2023-11-21T09:18:02;98719.78;;;6.15;100.00
28181;BME280;15464;50.988;10.318;2023-11-21T09:20:29;98715.97;;;6.19;100.00
28181;BME280;15464;50.988;10.318;2023-11-21T09:22:55;98720.59;;;6.28;100.00
28181;BME280;15464;50.988;10.318;2023-11-21T09:25:22;98728.78;;;6.36;100.00
28181;BME280;15464;50.988;10.318;2023-11-21T09:27:49;98728.13;;;6.45;100.00
28181;BME280;15464;50.988;10.318;2023-11-21T09:30:16;98728.31;;;6.55;100.00
28181;BME280;15464;50.988;10.318;2023-11-21T09:32:43;98730.34;;;6.63;100.00
28181;BME280;15464;50.988;10.318;2023-11-21T09:35:12;98737.13;;;6.67;100.00
28181;BME280;15464;50.988;10.318;2023-11-21T09:37:40;98738.34;;;6.74;100.00
28181;BME280;15464;50.988;10.318;2023-11-21T09:40:10;98743.88;;;6.82;100.00
28181;BME280;15464;50.988;10.318;2023-11-21T09:42:42;98740.66;;;6.78;100.00
28181;BME280;15464;50.988;10.318;2023-11-21T09:45:18;98749.91;;;6.84;100.00
28181;BME280;15464;50.988;10.318;2023-11-21T09:47:47;98753.28;;;6.86;100.00
28181;BME280;15464;50.988;10.318;2023-11-21T09:50:17;98747.41;;;6.94;100.00
28181;BME280;15464;50.988;10.318;2023-11-21T09:55:26;98744.94;;;7.03;100.00
28181;BME280;15464;50.988;10.318;2023-11-21T09:57:56;98744.50;;;7.09;100.00
28181;BME280;15464;50.988;10.318;2023-11-21T10:00:23;98745.72;;;7.16;100.00
28181;BME280;15464;50.988;10.318;2023-11-21T10:02:50;98743.19;;;7.15;100.00
28181;BME280;15464;50.988;10.318;2023-11-21T10:05:19;98753.63;;;7.16;100.00
28181;BME280;15464;50.988;10.318;2023-11-21T10:07:52;98740.06;;;7.10;100.00
28181;BME280;15464;50.988;10.318;2023-11-21T10:10:20;98743.38;;;7.24;100.00
28181;BME280;15464;50.988;10.318;2023-11-21T10:12:50;98745.25;;;7.22;100.00
28181;BME280;15464;50.988;10.318;2023-11-21T10:15:21;98752.78;;;7.16;100.00
28181;BME280;15464;50.988;10.318;2023-11-21T10:17:49;98746.41;;;7.07;100.00
28181;BME280;15464;50.988;10.318;2023-11-21T10:20:16;98747.63;;;7.14;100.00
28181;BME280;15464;50.988;10.318;2023-11-21T10:22:43;98745.47;;;7.19;100.00
28181;BME280;15464;50.988;10.318;2023-11-21T10:25:10;98751.28;;;7.24;100.00
28181;BME280;15464;50.988;10.318;2023-11-21T10:27:37;98754.69;;;7.14;100.00
28181;BME280;15464;50.988;10.318;2023-11-21T10:30:08;98749.59;;;7.23;100.00
28181;BME280;15464;50.988;10.318;2023-11-21T10:32:42;98755.09;;;7.32;100.00
28181;BME280;15464;50.988;10.318;2023-11-21T10:35:10;98758.47;;;7.34;100.00
28181;BME280;15464;50.988;10.318;2023-11-21T10:37:37;98758.28;;;7.37;100.00
28181;BME280;15464;50.988;10.318;2023-11-21T10:40:09;98763.75;;;7.34;100.00
28181;BME280;15464;50.988;10.318;2023-11-21T10:42:40;98760.00;;;7.25;100.00
28181;BME280;15464;50.988;10.318;2023-11-21T10:45:08;98759.69;;;7.29;100.00
28181;BME280;15464;50.988;10.318;2023-11-21T10:47:42;98756.91;;;7.31;100.00
28181;BME280;15464;50.988;10.318;2023-11-21T10:50:10;98763.16;;;7.30;100.00
28181;BME280;15464;50.988;10.318;2023-11-21T10:52:41;98764.47;;;7.24;100.00
28181;BME280;15464;50.988;10.318;2023-11-21T10:55:17;98765.28;;;7.25;100.00
28181;BME280;15464;50.988;10.318;2023-11-21T10:57:48;98767.34;;;7.33;100.00
28181;BME280;15464;50.988;10.318;2023-11-21T11:00:16;98776.00;;;7.35;100.00
28181;BME280;15464;50.988;10.318;2023-11-21T11:02:48;98772.16;;;7.39;100.00
28181;BME280;15464;50.988;10.318;2023-11-21T11:05:19;98780.47;;;7.45;100.00
28181;BME280;15464;50.988;10.318;2023-11-21T11:07:48;98778.22;;;7.52;100.00
28181;BME280;15464;50.988;10.318;2023-11-21T11:10:21;98779.28;;;7.49;100.00
28181;BME280;15464;50.988;10.318;2023-11-21T11:12:49;98785.38;;;7.50;100.00
28181;BME280;15464;50.988;10.318;2023-11-21T11:15:16;98779.63;;;7.45;100.00
28181;BME280;15464;50.988;10.318;2023-11-21T11:17:44;98782.13;;;7.35;100.00
28181;BME280;15464;50.988;10.318;2023-11-21T11:20:14;98775.03;;;7.24;100.00
28181;BME280;15464;50.988;10.318;2023-11-21T11:22:44;98776.22;;;7.32;100.00
28181;BME280;15464;50.988;10.318;2023-11-21T11:25:30;98778.63;;;7.35;100.00
28181;BME280;15464;50.988;10.318;2023-11-21T11:28:06;98778.41;;;7.38;100.00
28181;BME280;15464;50.988;10.318;2023-11-21T11:31:00;98787.88;;;7.40;100.00
28181;BME280;15464;50.988;10.318;2023-11-21T11:33:36;98786.59;;;7.46;100.00
28181;BME280;15464;50.988;10.318;2023-11-21T11:38:35;98794.13;;;7.39;100.00
28181;BME280;15464;50.988;10.318;2023-11-21T11:41:06;98791.75;;;7.47;100.00
28181;BME280;15464;50.988;10.318;2023-11-21T11:43:33;98794.28;;;7.49;100.00
28181;BME280;15464;50.988;10.318;2023-11-21T11:46:06;98791.03;;;7.45;100.00
28181;BME280;15464;50.988;10.318;2023-11-21T11:48:40;98798.34;;;7.42;100.00
28181;BME280;15464;50.988;10.318;2023-11-21T11:51:11;98795.91;;;7.39;100.00
28181;BME280;15464;50.988;10.318;2023-11-21T11:53:42;98791.25;;;7.42;100.00
28181;BME280;15464;50.988;10.318;2023-11-21T11:56:30;98789.97;;;7.48;100.00
28181;BME280;15464;50.988;10.318;2023-11-21T11:59:00;98789.84;;;7.49;100.00
28181;BME280;15464;50.988;10.318;2023-11-21T12:01:32;98798.25;;;7.54;100.00
28181;BME280;15464;50.988;10.318;2023-11-21T12:06:44;98793.44;;;7.48;100.00
28181;BME280;15464;50.988;10.318;2023-11-21T12:09:20;98799.56;;;7.49;100.00
28181;BME280;15464;50.988;10.318;2023-11-21T12:11:48;98797.41;;;7.54;100.00
28181;BME280;15464;50.988;10.318;2023-11-21T12:14:16;98804.88;;;7.60;100.00
28181;BME280;15464;50.988;10.318;2023-11-21T12:16:43;98810.41;;;7.68;100.00
28181;BME280;15464;50.988;10.318;2023-11-21T12:19:11;98799.56;;;7.49;100.00
28181;BME280;15464;50.988;10.318;2023-11-21T12:21:38;98812.69;;;7.61;100.00
28181;BME280;15464;50.988;10.318;2023-11-21T12:24:07;98809.91;;;7.63;100.00
28181;BME280;15464;50.988;10.318;2023-11-21T12:26:41;98819.28;;;7.67;100.00
28181;BME280;15464;50.988;10.318;2023-11-21T12:29:08;98813.63;;;7.60;100.00
28181;BME280;15464;50.988;10.318;2023-11-21T12:31:35;98817.97;;;7.61;100.00
28181;BME280;15464;50.988;10.318;2023-11-21T12:34:03;98814.22;;;7.64;100.00
28181;BME280;15464;50.988;10.318;2023-11-21T12:36:29;98811.84;;;7.61;100.00
28181;BME280;15464;50.988;10.318;2023-11-21T12:38:56;98816.03;;;7.63;100.00
28181;BME280;15464;50.988;10.318;2023-11-21T12:41:23;98808.94;;;7.64;100.00
28181;BME280;15464;50.988;10.318;2023-11-21T12:43:50;98818.66;;;7.63;100.00
28181;BME280;15464;50.988;10.318;2023-11-21T12:46:17;98817.59;;;7.66;100.00
28181;BME280;15464;50.988;10.318;2023-11-21T12:48:44;98827.91;;;7.69;100.00
28181;BME280;15464;50.988;10.318;2023-11-21T12:51:14;98823.47;;;7.69;100.00
28181;BME280;15464;50.988;10.318;2023-11-21T12:53:42;98826.47;;;7.65;100.00
28181;BME280;15464;50.988;10.318;2023-11-21T12:56:12;98831.53;;;7.68;100.00
28181;BME280;15464;50.988;10.318;2023-11-21T12:58:39;98826.97;;;7.70;100.00
28181;BME280;15464;50.988;10.318;2023-11-21T13:01:08;98827.91;;;7.69;100.00
28181;BME280;15464;50.988;10.318;2023-11-21T13:03:48;98829.72;;;7.68;100.00